createdAt,value
2018-07-30T00:01:07.193Z,8.80
2018-07-30T00:03:35.880Z,8.43
2018-07-30T00:06:04.466Z,8.70
2018-07-30T00:08:33.176Z,9.53
2018-07-30T00:11:01.938Z,10.53
2018-07-30T00:13:30.524Z,10.13
2018-07-30T00:15:59.054Z,8.80
2018-07-30T00:18:27.708Z,9.70
2018-07-30T00:20:56.366Z,8.53
2018-07-30T00:23:25.060Z,10.37
2018-07-30T00:25:53.661Z,9.03
2018-07-30T00:28:22.334Z,10.33
2018-07-30T00:30:51.010Z,9.70
2018-07-30T00:33:19.608Z,10.27
2018-07-30T00:35:48.289Z,11.37
2018-07-30T00:38:16.997Z,11.23
2018-07-30T00:40:45.572Z,11.23
2018-07-30T00:43:14.149Z,14.27
2018-07-30T00:45:43.021Z,9.70
2018-07-30T00:48:11.625Z,9.93
2018-07-30T00:50:40.152Z,9.90
2018-07-30T00:53:08.890Z,10.63
2018-07-30T00:55:37.586Z,10.10
2018-07-30T00:58:06.361Z,12.10
2018-07-30T01:00:35.054Z,11.03
2018-07-30T01:03:03.837Z,11.37
2018-07-30T01:05:32.555Z,11.07
2018-07-30T01:08:01.239Z,11.37
2018-07-30T01:10:29.976Z,12.47
2018-07-30T01:12:58.468Z,10.90
2018-07-30T01:15:27.248Z,10.70
2018-07-30T01:17:55.936Z,11.90
2018-07-30T01:20:24.720Z,10.60
2018-07-30T01:22:53.313Z,11.03
2018-07-30T01:25:22.089Z,12.93
2018-07-30T01:27:50.879Z,10.17
2018-07-30T01:30:19.465Z,10.40
2018-07-30T01:32:48.255Z,9.73
2018-07-30T01:35:16.809Z,9.57
2018-07-30T01:37:45.433Z,11.33
2018-07-30T01:40:13.912Z,9.53
2018-07-30T01:42:42.532Z,8.93
2018-07-30T01:45:11.192Z,9.40
2018-07-30T01:47:39.771Z,10.03
2018-07-30T01:50:08.534Z,9.17
2018-07-30T01:52:37.144Z,10.60
2018-07-30T01:55:05.906Z,9.57
2018-07-30T01:57:34.592Z,9.40
2018-07-30T02:00:03.152Z,9.97
2018-07-30T02:02:35.240Z,9.73
2018-07-30T02:05:04.068Z,9.63
2018-07-30T02:07:32.717Z,15.93
2018-07-30T02:10:01.298Z,8.93
2018-07-30T02:12:30.082Z,11.87
2018-07-30T02:14:58.876Z,11.47
2018-07-30T02:17:27.391Z,10.20
2018-07-30T02:19:56.144Z,11.67
2018-07-30T02:22:24.981Z,11.73
2018-07-30T02:24:53.618Z,9.50
2018-07-30T02:27:22.313Z,9.43
2018-07-30T02:29:51.059Z,11.23
2018-07-30T02:32:19.768Z,9.07
2018-07-30T02:34:48.460Z,10.47
2018-07-30T02:37:17.015Z,10.23
2018-07-30T02:39:45.624Z,17.70
2018-07-30T02:42:14.204Z,9.90
2018-07-30T02:44:42.806Z,9.03
2018-07-30T02:47:11.478Z,9.77
2018-07-30T02:49:40.056Z,11.47
2018-07-30T02:52:08.671Z,8.73
2018-07-30T02:54:37.451Z,9.27
2018-07-30T02:57:06.131Z,10.77
2018-07-30T02:59:34.695Z,10.50
2018-07-30T03:02:03.395Z,11.30
2018-07-30T03:04:31.875Z,11.33
2018-07-30T03:07:00.446Z,9.80
2018-07-30T03:09:29.181Z,10.33
2018-07-30T03:11:57.814Z,11.90
2018-07-30T03:14:26.397Z,9.10
2018-07-30T03:16:55.082Z,9.87
2018-07-30T03:19:23.769Z,8.97
2018-07-30T03:21:52.727Z,9.93
2018-07-30T03:24:21.355Z,10.47
2018-07-30T03:26:50.081Z,9.33
2018-07-30T03:29:18.715Z,11.67
2018-07-30T03:31:47.253Z,8.27
2018-07-30T03:34:15.782Z,8.00
2018-07-30T03:36:44.329Z,9.13
2018-07-30T03:39:13.050Z,8.50
2018-07-30T03:41:41.698Z,8.50
2018-07-30T03:44:10.420Z,9.57
2018-07-30T03:46:38.972Z,10.23
2018-07-30T03:49:07.700Z,8.43
2018-07-30T03:51:36.588Z,12.00
2018-07-30T03:54:05.197Z,9.77
2018-07-30T03:56:34.056Z,10.77
2018-07-30T03:59:02.758Z,12.03
2018-07-30T04:01:31.420Z,16.93
2018-07-30T04:04:00.011Z,14.23
2018-07-30T04:06:28.623Z,11.20
2018-07-30T04:08:57.231Z,13.20
2018-07-30T04:11:25.955Z,15.27
2018-07-30T04:13:54.640Z,12.27
2018-07-30T04:16:23.281Z,10.53
2018-07-30T04:18:52.043Z,8.93
2018-07-30T04:21:20.902Z,8.43
2018-07-30T04:23:49.565Z,9.03
2018-07-30T04:26:18.068Z,9.17
2018-07-30T04:28:46.756Z,9.90
2018-07-30T04:31:15.442Z,8.47
2018-07-30T04:33:44.151Z,11.37
2018-07-30T04:36:12.736Z,12.23
2018-07-30T04:41:16.429Z,12.37
2018-07-30T04:43:45.077Z,9.27
2018-07-30T04:46:13.579Z,9.70
2018-07-30T04:48:42.141Z,14.03
2018-07-30T04:51:10.759Z,10.73
2018-07-30T04:53:39.854Z,12.17
2018-07-30T04:56:08.453Z,9.73
2018-07-30T04:58:37.008Z,12.80
2018-07-30T05:01:05.712Z,12.77
2018-07-30T05:03:34.300Z,17.30
2018-07-30T05:06:02.876Z,15.93
2018-07-30T05:08:31.659Z,18.87
2018-07-30T05:11:00.246Z,13.40
2018-07-30T05:13:28.927Z,17.53
2018-07-30T05:15:57.715Z,17.90
2018-07-30T05:18:26.402Z,17.97
2018-07-30T05:20:55.088Z,20.43
2018-07-30T05:23:23.976Z,20.63
2018-07-30T05:25:52.778Z,33.80
2018-07-30T05:28:21.451Z,32.53
2018-07-30T05:30:49.930Z,29.20
2018-07-30T05:33:18.536Z,28.83
2018-07-30T05:35:46.996Z,34.30
2018-07-30T05:38:15.678Z,21.17
2018-07-30T05:40:44.261Z,22.80
2018-07-30T05:43:12.846Z,20.80
2018-07-30T05:45:41.715Z,22.23
2018-07-30T05:48:10.321Z,19.90
2018-07-30T05:50:38.904Z,24.23
2018-07-30T05:53:07.512Z,19.47
2018-07-30T05:55:36.169Z,19.50
2018-07-30T05:58:04.855Z,16.80
2018-07-30T06:00:33.377Z,17.90
2018-07-30T06:03:02.123Z,13.10
2018-07-30T06:05:30.840Z,12.53
2018-07-30T06:07:59.414Z,13.07
2018-07-30T06:10:27.979Z,10.60
2018-07-30T06:12:56.764Z,14.33
2018-07-30T06:15:25.248Z,18.73
2018-07-30T06:17:53.826Z,19.57
2018-07-30T06:20:22.512Z,16.30
2018-07-30T06:22:50.956Z,11.67
2018-07-30T06:25:19.616Z,17.00
2018-07-30T06:27:48.261Z,13.40
2018-07-30T06:30:16.795Z,14.07
2018-07-30T06:32:45.536Z,14.70
2018-07-30T06:35:14.114Z,16.67
2018-07-30T06:37:43.002Z,10.37
2018-07-30T06:40:11.697Z,12.70
2018-07-30T06:42:40.374Z,15.20
2018-07-30T06:45:09.075Z,13.70
2018-07-30T06:47:37.641Z,11.43
2018-07-30T06:50:06.132Z,12.23
2018-07-30T06:52:34.810Z,14.20
2018-07-30T06:55:03.390Z,10.60
2018-07-30T06:57:31.883Z,9.50
2018-07-30T07:00:00.559Z,12.50
2018-07-30T07:02:29.241Z,11.07
2018-07-30T07:04:57.736Z,10.33
2018-07-30T07:07:26.305Z,11.47
2018-07-30T07:09:54.889Z,11.37
2018-07-30T07:12:23.505Z,11.17
2018-07-30T07:14:52.160Z,10.40
2018-07-30T07:17:20.842Z,13.10
2018-07-30T07:19:49.392Z,12.70
2018-07-30T07:22:17.838Z,11.80
2018-07-30T07:24:46.496Z,9.87
2018-07-30T07:27:15.101Z,13.60
2018-07-30T07:29:43.655Z,9.87
2018-07-30T07:32:12.237Z,9.93
2018-07-30T07:34:40.598Z,7.67
2018-07-30T07:37:09.095Z,11.67
2018-07-30T07:39:37.682Z,8.63
2018-07-30T07:42:06.263Z,9.83
2018-07-30T07:44:34.857Z,8.60
2018-07-30T07:47:03.364Z,9.47
2018-07-30T07:49:31.909Z,9.80
2018-07-30T07:52:00.593Z,8.30
2018-07-30T07:54:29.253Z,10.97
2018-07-30T07:56:57.863Z,10.60
2018-07-30T07:59:26.343Z,9.73
2018-07-30T08:01:54.926Z,9.20
2018-07-30T08:04:23.520Z,12.87
2018-07-30T08:06:52.706Z,9.37
2018-07-30T08:09:21.258Z,10.40
2018-07-30T08:11:49.978Z,12.53
2018-07-30T08:14:18.564Z,10.47
2018-07-30T08:16:46.967Z,10.63
2018-07-30T08:19:15.625Z,10.57
2018-07-30T08:21:44.204Z,12.10
2018-07-30T08:24:12.872Z,12.47
2018-07-30T08:26:41.580Z,11.30
2018-07-30T08:29:10.196Z,11.07
2018-07-30T08:31:38.955Z,11.57
2018-07-30T08:34:07.528Z,11.60
2018-07-30T08:36:36.024Z,11.70
2018-07-30T08:39:06.312Z,11.00
2018-07-30T08:41:35.022Z,11.93
2018-07-30T08:44:03.556Z,12.23
2018-07-30T08:46:32.185Z,11.20
2018-07-30T08:49:00.769Z,11.70
2018-07-30T08:51:29.176Z,11.87
2018-07-30T08:53:58.040Z,12.07
2018-07-30T08:56:26.756Z,12.87
2018-07-30T08:58:55.306Z,11.10
2018-07-30T09:01:24.029Z,13.20
2018-07-30T09:03:52.674Z,11.43
2018-07-30T09:06:21.259Z,13.10
2018-07-30T09:08:49.754Z,12.00
2018-07-30T09:11:18.322Z,12.10
2018-07-30T09:13:46.938Z,13.10
2018-07-30T09:16:15.391Z,12.87
2018-07-30T09:18:43.972Z,14.57
2018-07-30T09:21:12.759Z,13.07
2018-07-30T09:23:41.272Z,12.30
2018-07-30T09:26:09.921Z,12.87
2018-07-30T09:28:38.528Z,12.47
2018-07-30T09:31:07.188Z,12.87
2018-07-30T09:33:35.877Z,13.43
2018-07-30T09:36:04.564Z,12.63
2018-07-30T09:38:33.001Z,11.90
2018-07-30T09:41:01.730Z,12.53
2018-07-30T09:43:30.232Z,13.10
2018-07-30T09:45:58.788Z,13.50
2018-07-30T09:48:27.475Z,12.90
2018-07-30T09:50:56.265Z,12.50
2018-07-30T09:53:24.676Z,11.93
2018-07-30T09:55:53.440Z,13.53
2018-07-30T09:58:22.013Z,13.57
2018-07-30T10:00:55.612Z,12.97
2018-07-30T10:03:24.106Z,13.13
2018-07-30T10:05:52.675Z,18.60
2018-07-30T10:08:21.260Z,18.13
2018-07-30T10:10:49.849Z,14.33
2018-07-30T10:13:18.732Z,20.47
2018-07-30T10:15:47.229Z,12.70
2018-07-30T10:18:15.667Z,13.97
2018-07-30T10:20:44.385Z,43.47
2018-07-30T10:23:12.877Z,15.27
2018-07-30T10:25:41.547Z,16.83
2018-07-30T10:28:10.336Z,18.23
2018-07-30T10:30:38.930Z,23.00
2018-07-30T10:33:07.499Z,20.73
2018-07-30T10:35:36.200Z,14.17
2018-07-30T10:38:04.822Z,18.43
2018-07-30T10:40:33.453Z,17.57
2018-07-30T10:43:02.039Z,18.03
2018-07-30T10:45:30.470Z,21.30
2018-07-30T10:47:59.510Z,18.40
2018-07-30T10:50:27.920Z,24.60
2018-07-30T10:52:56.573Z,15.43
2018-07-30T10:55:25.155Z,17.63
2018-07-30T10:57:53.738Z,15.33
2018-07-30T11:00:22.258Z,24.00
2018-07-30T11:02:51.006Z,25.60
2018-07-30T11:05:19.592Z,25.20
2018-07-30T11:07:48.234Z,16.67
2018-07-30T11:10:16.949Z,17.87
2018-07-30T11:12:45.647Z,21.50
2018-07-30T11:15:14.331Z,20.37
2018-07-30T11:17:42.933Z,18.23
2018-07-30T11:20:11.496Z,17.17
2018-07-30T11:22:39.892Z,19.03
2018-07-30T11:25:08.329Z,19.17
2018-07-30T11:27:36.939Z,24.93
2018-07-30T11:30:05.523Z,24.53
2018-07-30T11:32:33.976Z,20.10
2018-07-30T11:35:02.689Z,42.43
2018-07-30T11:37:31.271Z,13.97
2018-07-30T11:39:59.856Z,11.50
2018-07-30T11:42:28.444Z,11.10
2018-07-30T11:44:57.048Z,11.40
2018-07-30T11:47:25.728Z,12.43
2018-07-30T11:49:54.201Z,12.03
2018-07-30T11:52:22.773Z,11.93
2018-07-30T11:54:51.455Z,11.50
2018-07-30T11:57:20.142Z,11.13
2018-07-30T11:59:48.723Z,10.55
2018-07-30T12:02:17.931Z,11.30
2018-07-30T12:04:46.507Z,11.68
2018-07-30T12:07:15.617Z,10.93
2018-07-30T12:09:44.261Z,10.98
2018-07-30T12:12:13.387Z,13.25
2018-07-30T12:14:42.435Z,10.28
2018-07-30T12:17:11.733Z,10.63
2018-07-30T12:19:40.939Z,11.00
2018-07-30T12:22:09.915Z,11.40
2018-07-30T12:24:38.717Z,11.73
2018-07-30T12:27:07.609Z,10.90
2018-07-30T12:29:36.231Z,11.73
2018-07-30T12:32:05.276Z,14.30
2018-07-30T12:34:34.257Z,15.23
2018-07-30T12:37:03.335Z,12.30
2018-07-30T12:39:32.341Z,11.83
2018-07-30T12:42:01.178Z,12.47
2018-07-30T12:44:30.008Z,13.80
2018-07-30T12:46:59.014Z,11.83
2018-07-30T12:49:27.933Z,11.50
2018-07-30T12:51:56.911Z,11.60
2018-07-30T12:54:25.869Z,10.73
2018-07-30T12:56:54.880Z,11.07
2018-07-30T12:59:23.727Z,10.73
2018-07-30T13:01:52.419Z,10.93
2018-07-30T13:04:21.628Z,11.70
2018-07-30T13:06:50.613Z,11.40
2018-07-30T13:09:19.315Z,11.20
2018-07-30T13:11:48.483Z,13.97
2018-07-30T13:14:17.176Z,12.43
2018-07-30T13:16:45.880Z,12.63
2018-07-30T13:19:14.580Z,11.77
2018-07-30T13:21:43.420Z,10.90
2018-07-30T13:24:12.328Z,12.30
2018-07-30T13:26:41.503Z,11.50
2018-07-30T13:29:10.884Z,10.53
2018-07-30T13:31:39.896Z,10.87
2018-07-30T13:34:08.645Z,11.37
2018-07-30T13:36:37.899Z,11.27
2018-07-30T13:39:07.848Z,11.60
2018-07-30T13:41:36.944Z,12.23
2018-07-30T13:44:06.358Z,11.43
2018-07-30T13:46:35.342Z,11.27
2018-07-30T13:49:04.304Z,11.50
2018-07-30T13:51:33.599Z,12.20
2018-07-30T13:54:02.757Z,14.17
2018-07-30T13:56:32.056Z,11.80
2018-07-30T13:59:01.061Z,12.33
2018-07-30T14:01:29.939Z,13.80
2018-07-30T14:03:58.581Z,12.53
2018-07-30T14:06:27.741Z,13.47
2018-07-30T14:08:56.635Z,12.23
2018-07-30T14:11:25.244Z,10.23
2018-07-30T14:13:54.227Z,10.23
2018-07-30T14:16:23.112Z,9.23
2018-07-30T14:18:52.182Z,9.70
2018-07-30T14:21:21.000Z,10.97
2018-07-30T14:23:49.905Z,10.17
2018-07-30T14:26:18.886Z,10.53
2018-07-30T14:28:47.751Z,11.30
2018-07-30T14:31:16.720Z,10.73
2018-07-30T14:33:45.760Z,11.07
2018-07-30T14:36:14.403Z,10.70
2018-07-30T14:38:43.429Z,10.60
2018-07-30T14:41:12.285Z,11.10
2018-07-30T14:43:41.128Z,11.07
2018-07-30T14:46:10.313Z,10.53
2018-07-30T14:48:39.407Z,10.83
2018-07-30T14:51:08.127Z,10.03
2018-07-30T14:53:36.982Z,10.10
2018-07-30T14:56:06.315Z,9.47
2018-07-30T14:58:35.411Z,11.37
2018-07-30T15:01:04.425Z,10.10
2018-07-30T15:03:33.275Z,10.57
2018-07-30T15:06:02.374Z,10.97
2018-07-30T15:08:31.739Z,10.27
2018-07-30T15:11:00.956Z,9.93
2018-07-30T15:13:29.968Z,10.33
2018-07-30T15:15:59.212Z,10.13
2018-07-30T15:18:27.926Z,11.77
2018-07-30T15:20:56.530Z,11.83
2018-07-30T15:23:25.301Z,11.10
2018-07-30T15:25:53.947Z,11.40
2018-07-30T15:28:22.982Z,11.87
2018-07-30T15:30:51.952Z,11.17
2018-07-30T15:33:21.232Z,24.10
2018-07-30T15:35:50.165Z,21.67
2018-07-30T15:38:18.896Z,13.60
2018-07-30T15:40:48.113Z,12.33
2018-07-30T15:43:16.836Z,11.87
2018-07-30T15:45:45.637Z,12.77
2018-07-30T15:48:14.932Z,12.43
2018-07-30T15:50:44.079Z,12.03
2018-07-30T15:53:13.068Z,10.83
2018-07-30T15:55:42.014Z,12.37
2018-07-30T15:58:10.639Z,11.67
2018-07-30T16:00:39.921Z,11.17
2018-07-30T16:03:09.188Z,11.67
2018-07-30T16:05:37.840Z,12.67
2018-07-30T16:08:06.863Z,12.73
2018-07-30T16:10:35.790Z,12.47
2018-07-30T16:13:04.810Z,12.27
2018-07-30T16:15:34.124Z,11.53
2018-07-30T16:18:02.763Z,12.47
2018-07-30T16:20:31.651Z,12.23
2018-07-30T16:23:00.561Z,13.37
2018-07-30T16:25:29.322Z,12.20
2018-07-30T16:27:58.469Z,12.77
2018-07-30T16:30:27.389Z,11.77
2018-07-30T16:32:56.439Z,12.10
2018-07-30T16:35:25.129Z,12.00
2018-07-30T16:37:54.516Z,12.63
2018-07-30T16:40:23.357Z,12.20
2018-07-30T16:42:52.503Z,12.80
2018-07-30T16:45:21.371Z,12.33
2018-07-30T16:47:50.283Z,12.70
2018-07-30T16:50:19.078Z,12.10
2018-07-30T16:52:47.910Z,11.67
2018-07-30T16:55:16.660Z,11.63
2018-07-30T16:57:45.589Z,11.73
2018-07-30T17:00:14.842Z,12.03
2018-07-30T17:02:43.912Z,11.87
2018-07-30T17:05:12.979Z,11.87
2018-07-30T17:07:41.766Z,11.40
2018-07-30T17:10:10.971Z,11.77
2018-07-30T17:12:40.054Z,11.27
2018-07-30T17:15:08.988Z,9.83
2018-07-30T17:17:38.318Z,10.40
2018-07-30T17:20:09.292Z,10.03
2018-07-30T17:22:38.044Z,11.40
2018-07-30T17:25:06.955Z,10.30
2018-07-30T17:27:35.996Z,10.17
2018-07-30T17:30:05.260Z,16.20
2018-07-30T17:32:34.651Z,11.27
2018-07-30T17:35:03.712Z,8.63
2018-07-30T17:37:32.648Z,9.57
2018-07-30T17:40:01.464Z,11.47
2018-07-30T17:42:30.522Z,9.80
2018-07-30T17:44:59.439Z,8.73
2018-07-30T17:47:28.512Z,11.30
2018-07-30T17:49:57.504Z,12.03
2018-07-30T17:52:26.189Z,11.03
2018-07-30T17:54:54.876Z,12.40
2018-07-30T17:57:24.249Z,9.47
2018-07-30T17:59:53.071Z,9.10
2018-07-30T18:02:22.440Z,10.00
2018-07-30T18:04:51.665Z,8.93
2018-07-30T18:07:20.628Z,10.77
2018-07-30T18:09:49.753Z,11.23
2018-07-30T18:12:18.695Z,9.63
2018-07-30T18:14:48.016Z,10.63
2018-07-30T18:17:16.825Z,10.53
2018-07-30T18:19:45.688Z,11.90
2018-07-30T18:22:14.410Z,11.80
2018-07-30T18:24:43.128Z,12.13
2018-07-30T18:27:12.481Z,10.07
2018-07-30T18:29:41.285Z,15.00
2018-07-30T18:32:10.399Z,10.67
2018-07-30T18:34:39.531Z,14.13
2018-07-30T18:37:08.047Z,10.43
2018-07-30T18:39:36.696Z,14.15
2018-07-30T18:42:06.080Z,22.77
2018-07-30T18:44:35.240Z,10.10
2018-07-30T18:47:04.108Z,12.13
2018-07-30T18:49:33.047Z,11.53
2018-07-30T18:52:02.015Z,11.27
2018-07-30T18:54:30.417Z,13.73
2018-07-30T18:56:59.228Z,10.90
2018-07-30T18:59:28.262Z,11.77
2018-07-30T19:01:57.920Z,13.47
2018-07-30T19:04:26.662Z,13.60
2018-07-30T19:06:55.246Z,12.87
2018-07-30T19:09:23.762Z,10.37
2018-07-30T19:11:52.615Z,12.20
2018-07-30T19:14:21.218Z,14.10
2018-07-30T19:16:52.121Z,13.60
2018-07-30T19:19:20.923Z,9.53
2018-07-30T19:21:49.815Z,11.27
2018-07-30T19:24:19.136Z,8.80
2018-07-30T19:26:47.702Z,13.60
2018-07-30T19:29:16.080Z,9.23
2018-07-30T19:31:44.866Z,8.57
2018-07-30T19:34:13.450Z,12.67
2018-07-30T19:36:42.060Z,11.67
2018-07-30T19:39:12.562Z,11.70
2018-07-30T19:41:42.914Z,11.90
2018-07-30T19:44:14.081Z,11.63
2018-07-30T19:46:42.724Z,9.20
2018-07-30T19:49:11.501Z,9.87
2018-07-30T19:51:40.219Z,11.37
2018-07-30T19:54:08.900Z,12.87
2018-07-30T19:56:37.664Z,11.40
2018-07-30T19:59:06.590Z,8.77
2018-07-30T20:01:35.134Z,12.60
2018-07-30T20:04:03.872Z,7.97
2018-07-30T20:06:32.755Z,8.73
2018-07-30T20:09:01.387Z,12.60
2018-07-30T20:11:30.082Z,20.40
2018-07-30T20:13:58.722Z,11.00
2018-07-30T20:16:27.448Z,14.03
2018-07-30T20:18:56.030Z,11.83
2018-07-30T20:21:24.612Z,10.13
2018-07-30T20:23:55.008Z,11.90
2018-07-30T20:26:23.621Z,9.95
2018-07-30T20:28:52.305Z,12.50
2018-07-30T20:31:24.906Z,10.90
2018-07-30T20:33:54.693Z,12.93
2018-07-30T20:36:23.999Z,12.03
2018-07-30T20:38:53.130Z,15.90
2018-07-30T20:41:22.361Z,11.53
2018-07-30T20:43:50.976Z,13.80
2018-07-30T20:46:19.761Z,10.47
2018-07-30T20:48:48.357Z,9.97
2018-07-30T20:51:16.931Z,11.57
2018-07-30T20:53:45.723Z,10.23
2018-07-30T20:56:14.501Z,15.87
2018-07-30T20:58:43.311Z,14.83
2018-07-30T21:01:12.078Z,12.27
2018-07-30T21:03:40.971Z,10.90
2018-07-30T21:06:09.808Z,14.47
2018-07-30T21:08:38.572Z,13.63
2018-07-30T21:11:07.140Z,12.23
2018-07-30T21:13:35.811Z,10.13
2018-07-30T21:16:04.631Z,13.53
2018-07-30T21:18:33.419Z,11.53
2018-07-30T21:21:02.100Z,11.73
2018-07-30T21:23:30.970Z,12.07
2018-07-30T21:25:59.392Z,10.83
2018-07-30T21:28:28.142Z,15.75
2018-07-30T21:30:56.661Z,12.77
2018-07-30T21:33:25.515Z,9.53
2018-07-30T21:35:54.187Z,9.50
2018-07-30T21:38:23.091Z,8.83
2018-07-30T21:40:51.765Z,10.07
2018-07-30T21:43:20.417Z,10.70
2018-07-30T21:45:49.128Z,12.13
2018-07-30T21:48:17.920Z,8.83
2018-07-30T21:50:46.552Z,10.20
2018-07-30T21:53:15.365Z,9.93
2018-07-30T21:55:44.359Z,9.77
2018-07-30T21:58:13.215Z,10.80
2018-07-30T22:00:46.241Z,9.60
2018-07-30T22:03:15.077Z,9.60
2018-07-30T22:05:44.010Z,8.63
2018-07-30T22:08:12.731Z,9.13
2018-07-30T22:10:41.527Z,9.77
2018-07-30T22:13:10.512Z,8.20
2018-07-30T22:15:39.611Z,9.13
2018-07-30T22:18:08.393Z,8.50
2018-07-30T22:20:37.493Z,10.57
2018-07-30T22:23:06.480Z,7.47
2018-07-30T22:25:35.298Z,7.10
2018-07-30T22:28:03.871Z,9.53
2018-07-30T22:30:32.843Z,10.20
2018-07-30T22:33:01.530Z,8.33
2018-07-30T22:35:30.552Z,8.97
2018-07-30T22:37:59.310Z,8.70
2018-07-30T22:40:28.189Z,8.90
2018-07-30T22:42:57.190Z,9.40
2018-07-30T22:45:25.957Z,8.37
2018-07-30T22:47:55.081Z,9.20
2018-07-30T22:50:24.141Z,12.30
2018-07-30T22:52:52.956Z,8.67
2018-07-30T22:55:21.948Z,10.13
2018-07-30T22:57:50.547Z,11.23
2018-07-30T23:00:19.374Z,8.70
2018-07-30T23:02:48.330Z,8.73
2018-07-30T23:05:16.912Z,8.17
2018-07-30T23:07:45.682Z,8.63
2018-07-30T23:10:14.504Z,9.30
2018-07-30T23:12:43.439Z,10.23
2018-07-30T23:15:12.149Z,9.40
2018-07-30T23:17:40.875Z,10.47
2018-07-30T23:20:09.623Z,9.87
2018-07-30T23:22:38.515Z,11.10
2018-07-30T23:25:07.207Z,9.77
2018-07-30T23:27:35.767Z,8.77
2018-07-30T23:30:04.678Z,11.23
2018-07-30T23:32:33.404Z,11.23
2018-07-30T23:35:02.366Z,10.87
2018-07-30T23:37:30.907Z,10.50
2018-07-30T23:39:59.968Z,12.07
2018-07-30T23:42:28.644Z,11.20
2018-07-30T23:44:57.438Z,11.10
2018-07-30T23:47:26.448Z,10.67
2018-07-30T23:49:55.073Z,9.77
2018-07-30T23:52:23.882Z,10.17
2018-07-30T23:54:52.826Z,13.37
2018-07-30T23:57:21.476Z,9.67
2018-07-30T23:59:50.139Z,10.37
